Time;durP1;ratioP1;P1;durP2;ratioP2;P2;SDS_P1;SDS_P2;PMS_P1;PMS_P2;Temp;Humidity;BMP_temperature;BMP_pressure;BME280_temperature;BME280_humidity;BME280_pressure;Samples;Min_cycle;Max_cycle;Signal;HPM_P1;HPM_P2
2023/09/24 00:01:38;;;;;;;;;;;15.50;93.20;;;;;;5093098;28;19923;-71
2023/09/24 00:04:03;;;;;;;;;;;15.50;93.20;;;;;;5092736;28;19908;-71
2023/09/24 00:06:30;;;;;;;;;;;15.50;93.20;;;;;;5092672;28;19923;-71
2023/09/24 00:08:55;;;;;;;;;;;15.50;93.30;;;;;;5086844;28;19981;-71
2023/09/24 00:11:21;;;;;;;;;;;15.40;93.20;;;;;;5097116;28;20344;-71
2023/09/24 00:13:46;;;;;;;;;;;15.40;93.20;;;;;;5091593;28;19912;-71
2023/09/24 00:16:14;;;;;;;;;;;15.40;93.30;;;;;;5092692;28;20304;-71
2023/09/24 00:18:39;;;;;;;;;;;15.30;93.20;;;;;;5100488;28;20046;-71
2023/09/24 00:21:06;;;;;;;;;;;15.40;93.30;;;;;;5104983;28;20006;-71
2023/09/24 00:23:32;;;;;;;;;;;15.30;93.30;;;;;;5094858;28;19915;-71
2023/09/24 00:25:57;;;;;;;;;;;15.30;93.20;;;;;;5083873;28;19912;-71
2023/09/24 00:28:23;;;;;;;;;;;15.30;93.30;;;;;;5083818;28;20350;-71
2023/09/24 00:30:50;;;;;;;;;;;15.30;93.30;;;;;;5084980;28;19916;-71
2023/09/24 00:33:16;;;;;;;;;;;15.30;93.30;;;;;;5094111;28;19923;-71
2023/09/24 00:35:42;;;;;;;;;;;15.20;93.30;;;;;;5083801;28;20288;-71
2023/09/24 00:38:08;;;;;;;;;;;15.20;93.30;;;;;;5090606;28;19916;-71
2023/09/24 00:40:34;;;;;;;;;;;15.20;93.30;;;;;;5075751;28;19908;-71
2023/09/24 00:42:59;;;;;;;;;;;15.20;93.30;;;;;;5095026;28;20035;-71
2023/09/24 00:45:28;;;;;;;;;;;15.20;93.30;;;;;;5089737;28;19946;-71
2023/09/24 00:47:57;;;;;;;;;;;15.20;93.30;;;;;;5092232;28;20392;-71
2023/09/24 00:50:33;;;;;;;;;;;15.20;93.30;;;;;;5091890;28;20305;-71
2023/09/24 00:52:58;;;;;;;;;;;15.10;93.30;;;;;;5092259;28;20268;-71
2023/09/24 00:55:26;;;;;;;;;;;15.10;93.30;;;;;;5091747;28;19916;-71
2023/09/24 00:57:51;;;;;;;;;;;15.10;93.30;;;;;;5087136;28;20250;-71
2023/09/24 01:00:19;;;;;;;;;;;15.10;93.30;;;;;;5087307;28;20045;-71
2023/09/24 01:02:47;;;;;;;;;;;15.00;93.30;;;;;;5095110;28;20021;-71
2023/09/24 01:05:14;;;;;;;;;;;15.10;93.40;;;;;;5091715;28;19912;-71
2023/09/24 01:07:41;;;;;;;;;;;15.00;93.30;;;;;;5088270;28;20073;-71
2023/09/24 01:10:08;;;;;;;;;;;15.00;93.40;;;;;;5087018;28;19908;-71
2023/09/24 01:12:33;;;;;;;;;;;15.00;93.30;;;;;;5100323;28;19908;-71
2023/09/24 01:14:59;;;;;;;;;;;15.00;93.40;;;;;;5092199;28;20102;-71
2023/09/24 01:17:25;;;;;;;;;;;15.00;93.40;;;;;;5081857;28;19920;-71
2023/09/24 01:19:54;;;;;;;;;;;15.00;93.40;;;;;;5108517;27;19997;-71
2023/09/24 01:22:20;;;;;;;;;;;14.90;93.30;;;;;;5096462;28;19946;-71
2023/09/24 01:24:45;;;;;;;;;;;14.90;93.40;;;;;;5094933;28;19948;-71
2023/09/24 01:27:11;;;;;;;;;;;14.90;93.40;;;;;;5079422;28;19920;-71
2023/09/24 01:29:36;;;;;;;;;;;14.90;93.40;;;;;;5082096;28;19997;-71
2023/09/24 01:32:04;;;;;;;;;;;14.90;93.40;;;;;;5089050;28;19913;-71
2023/09/24 01:34:29;;;;;;;;;;;14.80;93.40;;;;;;5097434;28;19908;-71
2023/09/24 01:36:55;;;;;;;;;;;14.80;93.30;;;;;;5091199;28;19915;-71
2023/09/24 01:39:25;;;;;;;;;;;14.80;93.40;;;;;;5081593;28;19908;-71
2023/09/24 01:41:51;;;;;;;;;;;14.80;93.40;;;;;;5103384;28;19939;-71
2023/09/24 01:44:20;;;;;;;;;;;14.80;93.40;;;;;;5087917;28;19912;-71
2023/09/24 01:46:47;;;;;;;;;;;14.80;93.40;;;;;;5082768;28;19911;-71
2023/09/24 01:49:13;;;;;;;;;;;14.80;93.40;;;;;;5099639;28;19934;-71
2023/09/24 01:51:38;;;;;;;;;;;14.70;93.40;;;;;;5090602;28;20579;-71
2023/09/24 01:54:04;;;;;;;;;;;14.70;93.40;;;;;;5097318;28;19912;-71
2023/09/24 01:56:30;;;;;;;;;;;14.70;93.40;;;;;;5092285;28;19912;-71
2023/09/24 01:58:56;;;;;;;;;;;14.70;93.40;;;;;;5085559;28;20033;-71
2023/09/24 02:01:22;;;;;;;;;;;14.70;93.40;;;;;;5083857;28;19919;-71
2023/09/24 02:03:48;;;;;;;;;;;14.70;93.40;;;;;;5123616;27;19916;-71
2023/09/24 02:06:17;;;;;;;;;;;14.60;93.40;;;;;;5098464;28;19912;-71
2023/09/24 02:08:43;;;;;;;;;;;14.60;93.40;;;;;;5084612;28;20342;-71
2023/09/24 02:11:08;;;;;;;;;;;14.60;93.40;;;;;;5087114;28;19912;-71
2023/09/24 02:13:34;;;;;;;;;;;14.60;93.40;;;;;;5091654;28;20250;-71
2023/09/24 02:16:00;;;;;;;;;;;14.60;93.40;;;;;;5096723;28;20406;-71
2023/09/24 02:18:32;;;;;;;;;;;14.60;93.40;;;;;;5113576;27;19954;-71
2023/09/24 02:21:00;;;;;;;;;;;14.60;93.40;;;;;;5083267;28;19908;-71
2023/09/24 02:23:26;;;;;;;;;;;14.60;93.40;;;;;;5090362;28;20549;-71
2023/09/24 02:25:52;;;;;;;;;;;14.60;93.40;;;;;;5090350;28;19937;-71
2023/09/24 02:28:18;;;;;;;;;;;14.50;93.40;;;;;;5082331;28;19956;-71
2023/09/24 02:30:44;;;;;;;;;;;14.50;93.40;;;;;;5082182;28;19912;-71
2023/09/24 02:33:09;;;;;;;;;;;14.50;93.40;;;;;;5092120;28;19916;-71
2023/09/24 02:35:36;;;;;;;;;;;14.50;93.40;;;;;;5089717;28;20395;-71
2023/09/24 02:38:01;;;;;;;;;;;14.50;93.40;;;;;;5090022;28;20006;-71
2023/09/24 02:40:27;;;;;;;;;;;14.50;93.50;;;;;;5098428;28;20132;-71
2023/09/24 02:42:56;;;;;;;;;;;14.40;93.40;;;;;;5085160;28;19916;-71
2023/09/24 02:45:22;;;;;;;;;;;14.40;93.40;;;;;;5102898;28;19919;-71
2023/09/24 02:47:49;;;;;;;;;;;14.40;93.40;;;;;;5097730;28;19915;-71
2023/09/24 02:50:15;;;;;;;;;;;14.40;93.50;;;;;;5081591;28;20517;-71
2023/09/24 02:52:41;;;;;;;;;;;14.40;93.40;;;;;;5089169;28;19916;-71
2023/09/24 02:55:08;;;;;;;;;;;14.40;93.50;;;;;;5089589;28;19908;-71
2023/09/24 02:57:33;;;;;;;;;;;14.40;93.50;;;;;;5081380;28;19912;-71
2023/09/24 02:59:59;;;;;;;;;;;14.40;93.40;;;;;;5089741;28;20007;-71
2023/09/24 03:02:28;;;;;;;;;;;14.40;93.50;;;;;;5092517;28;19987;-71
2023/09/24 03:04:53;;;;;;;;;;;14.40;93.50;;;;;;5089158;28;19908;-71
2023/09/24 03:07:19;;;;;;;;;;;14.30;93.50;;;;;;5089295;28;20337;-71
2023/09/24 03:09:45;;;;;;;;;;;14.30;93.50;;;;;;5079909;28;19912;-71
2023/09/24 03:12:11;;;;;;;;;;;14.30;93.50;;;;;;5090988;28;19912;-71
2023/09/24 03:14:37;;;;;;;;;;;14.30;93.50;;;;;;5089083;28;20020;-71
2023/09/24 03:17:02;;;;;;;;;;;14.30;93.50;;;;;;5081676;28;20015;-71
2023/09/24 03:19:28;;;;;;;;;;;14.30;93.50;;;;;;5093962;28;20343;-71
2023/09/24 03:21:54;;;;;;;;;;;14.30;93.50;;;;;;5085121;28;19912;-71
2023/09/24 03:24:20;;;;;;;;;;;14.30;93.50;;;;;;5087582;28;20569;-71
2023/09/24 03:26:47;;;;;;;;;;;14.30;93.50;;;;;;5097382;28;19997;-71
2023/09/24 03:29:12;;;;;;;;;;;14.20;93.50;;;;;;5089484;28;19916;-71
2023/09/24 03:31:38;;;;;;;;;;;14.20;93.50;;;;;;5084973;28;20457;-71
2023/09/24 03:34:04;;;;;;;;;;;14.20;93.50;;;;;;5104648;28;20330;-71
2023/09/24 03:36:30;;;;;;;;;;;14.20;93.50;;;;;;5089068;28;19917;-71
2023/09/24 03:38:56;;;;;;;;;;;14.20;93.50;;;;;;5108384;28;19942;-71
2023/09/24 03:41:22;;;;;;;;;;;14.20;93.50;;;;;;5080360;28;19911;-71
2023/09/24 03:43:47;;;;;;;;;;;14.20;93.50;;;;;;5079234;28;19943;-71
2023/09/24 03:46:13;;;;;;;;;;;14.20;93.60;;;;;;5084537;28;19916;-71
2023/09/24 03:48:38;;;;;;;;;;;14.10;93.60;;;;;;5089057;28;19916;-71
2023/09/24 03:51:04;;;;;;;;;;;14.10;93.60;;;;;;5089149;28;19913;-71
2023/09/24 03:53:29;;;;;;;;;;;14.10;93.50;;;;;;5091215;28;19918;-71
2023/09/24 03:55:55;;;;;;;;;;;14.10;93.60;;;;;;5094215;28;19912;-71
2023/09/24 03:58:20;;;;;;;;;;;14.10;93.60;;;;;;5090401;28;19920;-71
2023/09/24 04:00:46;;;;;;;;;;;14.10;93.50;;;;;;5088743;28;19986;-71
2023/09/24 04:03:14;;;;;;;;;;;14.10;93.60;;;;;;5089961;28;19912;-71
2023/09/24 04:05:39;;;;;;;;;;;14.10;93.50;;;;;;5088543;28;19942;-71
2023/09/24 04:08:05;;;;;;;;;;;14.10;93.60;;;;;;5088863;28;19908;-71
2023/09/24 04:10:30;;;;;;;;;;;14.10;93.60;;;;;;5090352;28;19912;-71
2023/09/24 04:12:57;;;;;;;;;;;14.10;93.60;;;;;;5093544;28;19985;-71
2023/09/24 04:15:28;;;;;;;;;;;14.00;93.60;;;;;;5088453;28;19908;-71
2023/09/24 04:17:57;;;;;;;;;;;14.00;93.50;;;;;;5088589;28;20015;-71
2023/09/24 04:20:24;;;;;;;;;;;14.10;93.60;;;;;;5088478;28;19985;-71
2023/09/24 04:22:49;;;;;;;;;;;14.00;93.60;;;;;;5090571;28;19912;-71
2023/09/24 04:25:17;;;;;;;;;;;14.00;93.60;;;;;;5096958;28;19935;-71
2023/09/24 04:27:42;;;;;;;;;;;14.00;93.60;;;;;;5088891;28;19923;-71
2023/09/24 04:30:15;;;;;;;;;;;14.00;93.60;;;;;;5088327;28;19908;-71
2023/09/24 04:32:41;;;;;;;;;;;14.00;93.60;;;;;;5090270;28;20477;-71
2023/09/24 04:35:07;;;;;;;;;;;14.00;93.60;;;;;;5082006;28;19999;-71
2023/09/24 04:37:33;;;;;;;;;;;14.00;93.60;;;;;;5088284;28;19919;-71
2023/09/24 04:39:58;;;;;;;;;;;14.00;93.60;;;;;;5100524;28;19912;-71
2023/09/24 04:42:24;;;;;;;;;;;13.90;93.60;;;;;;5101090;28;20379;-71
2023/09/24 04:44:49;;;;;;;;;;;13.90;93.60;;;;;;5085702;28;19912;-71
2023/09/24 04:47:15;;;;;;;;;;;14.00;93.60;;;;;;5091794;28;20379;-71
2023/09/24 04:49:40;;;;;;;;;;;13.90;93.60;;;;;;5079168;28;19912;-71
2023/09/24 04:52:06;;;;;;;;;;;13.90;93.60;;;;;;5085789;28;20436;-71
2023/09/24 04:54:31;;;;;;;;;;;13.90;93.60;;;;;;5090405;28;19908;-71
2023/09/24 04:56:57;;;;;;;;;;;13.90;93.60;;;;;;5085578;28;20005;-71
2023/09/24 04:59:22;;;;;;;;;;;13.90;93.60;;;;;;5087876;28;20346;-71
2023/09/24 05:01:48;;;;;;;;;;;13.90;93.60;;;;;;5082933;28;19973;-71
2023/09/24 05:04:16;;;;;;;;;;;13.90;93.70;;;;;;5082089;28;19944;-71
2023/09/24 05:06:41;;;;;;;;;;;13.90;93.70;;;;;;5079477;28;19913;-71
2023/09/24 05:09:07;;;;;;;;;;;13.90;93.70;;;;;;5086782;28;20284;-71
2023/09/24 05:11:32;;;;;;;;;;;13.90;93.60;;;;;;5091022;28;19912;-71
2023/09/24 05:13:58;;;;;;;;;;;13.90;93.70;;;;;;5090644;28;19962;-71
2023/09/24 05:16:24;;;;;;;;;;;13.90;93.70;;;;;;5090270;28;19961;-71
2023/09/24 05:18:50;;;;;;;;;;;13.80;93.60;;;;;;5090730;28;20029;-71
2023/09/24 05:21:17;;;;;;;;;;;13.80;93.60;;;;;;5115359;27;19916;-71
2023/09/24 05:23:43;;;;;;;;;;;13.90;93.70;;;;;;5088080;28;19916;-71
2023/09/24 05:26:14;;;;;;;;;;;13.80;93.60;;;;;;5078568;28;19920;-71
2023/09/24 05:28:42;;;;;;;;;;;13.80;93.70;;;;;;5089085;28;20438;-71
2023/09/24 05:31:07;;;;;;;;;;;13.80;93.70;;;;;;5090560;28;20273;-71
2023/09/24 05:33:33;;;;;;;;;;;13.80;93.70;;;;;;5081375;28;20389;-71
2023/09/24 05:35:58;;;;;;;;;;;13.80;93.60;;;;;;5085144;28;19927;-71
2023/09/24 05:38:26;;;;;;;;;;;13.80;93.70;;;;;;5086248;28;19920;-71
2023/09/24 05:40:52;;;;;;;;;;;13.80;93.70;;;;;;5079048;28;19918;-71
2023/09/24 05:43:18;;;;;;;;;;;13.80;93.70;;;;;;5098379;28;19912;-71
2023/09/24 05:45:44;;;;;;;;;;;13.80;93.70;;;;;;5085964;28;19967;-71
2023/09/24 05:48:09;;;;;;;;;;;13.80;93.70;;;;;;5090225;28;19916;-71
2023/09/24 05:50:35;;;;;;;;;;;13.80;93.70;;;;;;5119874;27;19958;-71
2023/09/24 05:53:00;;;;;;;;;;;13.80;93.60;;;;;;5090294;28;19939;-71
2023/09/24 05:55:26;;;;;;;;;;;13.70;93.60;;;;;;5102391;28;19922;-71
2023/09/24 05:57:51;;;;;;;;;;;13.70;93.70;;;;;;5095864;28;19916;-71
2023/09/24 06:00:17;;;;;;;;;;;13.80;93.70;;;;;;5097240;28;19912;-71
2023/09/24 06:02:42;;;;;;;;;;;13.80;93.70;;;;;;5097800;28;20010;-71
2023/09/24 06:05:09;;;;;;;;;;;13.80;94.00;;;;;;5080810;28;19916;-71
2023/09/24 06:07:35;;;;;;;;;;;13.80;93.70;;;;;;5079462;28;19942;-71
2023/09/24 06:10:04;;;;;;;;;;;13.80;93.70;;;;;;5092110;28;19919;-71
2023/09/24 06:12:30;;;;;;;;;;;13.80;93.70;;;;;;5090529;28;19923;-71
2023/09/24 06:14:56;;;;;;;;;;;13.80;93.70;;;;;;5076414;28;20537;-71
2023/09/24 06:17:21;;;;;;;;;;;13.80;93.70;;;;;;5068124;28;19923;-71
2023/09/24 06:19:47;;;;;;;;;;;13.80;93.70;;;;;;5089837;28;19957;-71
2023/09/24 06:22:12;;;;;;;;;;;13.80;93.70;;;;;;5098438;28;19930;-71
2023/09/24 06:24:38;;;;;;;;;;;13.80;93.70;;;;;;5092604;28;19908;-71
2023/09/24 06:27:04;;;;;;;;;;;13.80;93.70;;;;;;5092062;28;19981;-71
2023/09/24 06:29:32;;;;;;;;;;;13.80;93.70;;;;;;5093253;28;19908;-71
2023/09/24 06:31:58;;;;;;;;;;;13.80;93.70;;;;;;5087589;28;19915;-71
2023/09/24 06:34:25;;;;;;;;;;;13.80;93.70;;;;;;5079873;28;19912;-71
2023/09/24 06:36:51;;;;;;;;;;;13.80;93.70;;;;;;5088020;28;19916;-71
2023/09/24 06:39:17;;;;;;;;;;;13.80;93.60;;;;;;5081521;28;19912;-71
2023/09/24 06:41:42;;;;;;;;;;;13.80;93.70;;;;;;5085744;28;20033;-71
2023/09/24 06:44:10;;;;;;;;;;;13.80;93.70;;;;;;5106747;27;19913;-71
2023/09/24 06:46:35;;;;;;;;;;;13.80;93.70;;;;;;5078252;28;20365;-71
2023/09/24 06:49:01;;;;;;;;;;;13.80;93.70;;;;;;5089708;28;19915;-71
2023/09/24 06:51:27;;;;;;;;;;;13.80;93.60;;;;;;5095434;28;19919;-71
2023/09/24 06:53:53;;;;;;;;;;;13.80;93.60;;;;;;5083865;28;19919;-71
2023/09/24 06:56:18;;;;;;;;;;;13.80;93.60;;;;;;5089456;28;19958;-71
2023/09/24 06:58:44;;;;;;;;;;;13.80;93.60;;;;;;5084095;28;19959;-71
2023/09/24 07:01:09;;;;;;;;;;;13.80;93.70;;;;;;5106440;28;20037;-71
2023/09/24 07:03:35;;;;;;;;;;;13.90;93.60;;;;;;5080779;28;19920;-71
2023/09/24 07:06:05;;;;;;;;;;;13.90;93.60;;;;;;5095489;28;19941;-71
2023/09/24 07:08:33;;;;;;;;;;;13.90;93.70;;;;;;5091443;28;19923;-71
2023/09/24 07:11:17;;;;;;;;;;;13.90;93.60;;;;;;5090781;28;20308;-71
2023/09/24 07:13:43;;;;;;;;;;;13.90;93.60;;;;;;5079644;28;19916;-71
2023/09/24 07:16:08;;;;;;;;;;;13.90;93.60;;;;;;5087599;28;20267;-71
2023/09/24 07:18:34;;;;;;;;;;;13.90;93.60;;;;;;5088886;28;19920;-71
2023/09/24 07:20:59;;;;;;;;;;;13.90;93.60;;;;;;5095328;28;20279;-71
2023/09/24 07:23:25;;;;;;;;;;;14.00;93.60;;;;;;5088018;28;19912;-71
2023/09/24 07:25:50;;;;;;;;;;;13.90;93.60;;;;;;5080582;28;19916;-71
2023/09/24 07:28:16;;;;;;;;;;;14.00;93.60;;;;;;5080480;28;20527;-71
2023/09/24 07:30:41;;;;;;;;;;;14.00;93.50;;;;;;5090465;28;19918;-71
2023/09/24 07:33:08;;;;;;;;;;;14.00;93.50;;;;;;5083090;28;19915;-71
2023/09/24 07:35:34;;;;;;;;;;;14.00;93.80;;;;;;5104762;28;19994;-71
2023/09/24 07:38:00;;;;;;;;;;;14.00;93.50;;;;;;5088557;28;20069;-71
2023/09/24 07:40:25;;;;;;;;;;;14.00;93.50;;;;;;5094557;28;20393;-71
2023/09/24 07:42:50;;;;;;;;;;;14.00;93.50;;;;;;5088371;28;19913;-71
2023/09/24 07:45:18;;;;;;;;;;;14.10;93.50;;;;;;5088382;28;19928;-71
2023/09/24 07:47:44;;;;;;;;;;;14.10;93.50;;;;;;5077140;28;20693;-71
2023/09/24 07:50:10;;;;;;;;;;;14.10;93.40;;;;;;5085122;28;19926;-71
2023/09/24 07:52:36;;;;;;;;;;;14.10;93.40;;;;;;5095113;28;19907;-71
2023/09/24 07:55:01;;;;;;;;;;;14.10;93.30;;;;;;5112512;27;19969;-71
2023/09/24 07:57:27;;;;;;;;;;;14.20;93.30;;;;;;5087259;28;19957;-71
2023/09/24 07:59:53;;;;;;;;;;;14.20;93.30;;;;;;5104704;28;19908;-71
2023/09/24 08:02:20;;;;;;;;;;;14.20;93.30;;;;;;5072451;28;20085;-71
2023/09/24 08:04:46;;;;;;;;;;;14.20;93.30;;;;;;5120384;27;20563;-71
2023/09/24 08:07:11;;;;;;;;;;;14.30;93.30;;;;;;5087237;28;19923;-71
2023/09/24 08:09:38;;;;;;;;;;;14.30;93.20;;;;;;5081927;28;20455;-71
2023/09/24 08:12:04;;;;;;;;;;;14.30;93.20;;;;;;5082356;28;19908;-71
2023/09/24 08:14:29;;;;;;;;;;;14.30;93.20;;;;;;5099112;28;19919;-71
2023/09/24 08:16:55;;;;;;;;;;;14.30;93.20;;;;;;5096301;28;19935;-71
2023/09/24 08:19:20;;;;;;;;;;;14.30;93.20;;;;;;5087529;28;20245;-71
2023/09/24 08:21:46;;;;;;;;;;;14.40;93.20;;;;;;5080551;28;19912;-71
2023/09/24 08:24:11;;;;;;;;;;;14.50;93.10;;;;;;5098696;28;19916;-71
2023/09/24 08:26:37;;;;;;;;;;;14.50;93.20;;;;;;5098094;28;20326;-71
2023/09/24 08:29:06;;;;;;;;;;;14.50;93.10;;;;;;5096208;28;20015;-71
2023/09/24 08:31:32;;;;;;;;;;;14.60;93.10;;;;;;5086120;28;19908;-71
2023/09/24 08:33:58;;;;;;;;;;;14.60;93.10;;;;;;5096228;28;20364;-71
2023/09/24 08:36:23;;;;;;;;;;;14.60;93.10;;;;;;5102414;28;19965;-71
2023/09/24 08:38:49;;;;;;;;;;;14.60;93.00;;;;;;5091806;28;19915;-71
2023/09/24 08:41:14;;;;;;;;;;;14.70;93.00;;;;;;5090706;28;19923;-71
2023/09/24 08:43:42;;;;;;;;;;;14.70;93.00;;;;;;5084546;28;20288;-71
2023/09/24 08:46:09;;;;;;;;;;;14.70;93.00;;;;;;5083337;28;19950;-71
2023/09/24 08:48:34;;;;;;;;;;;14.70;92.90;;;;;;5091803;28;19977;-71
2023/09/24 08:51:01;;;;;;;;;;;14.80;92.90;;;;;;5092005;28;19920;-71
2023/09/24 08:53:28;;;;;;;;;;;14.80;92.90;;;;;;5100412;28;20380;-71
2023/09/24 08:55:54;;;;;;;;;;;14.80;92.80;;;;;;5111625;28;20002;-71
2023/09/24 08:58:20;;;;;;;;;;;14.80;92.80;;;;;;5095908;28;19995;-71
2023/09/24 09:00:45;;;;;;;;;;;14.90;92.80;;;;;;5083725;28;19959;-71
2023/09/24 09:03:11;;;;;;;;;;;14.90;92.80;;;;;;5090497;28;20465;-71
2023/09/24 09:05:37;;;;;;;;;;;15.00;92.80;;;;;;5079641;28;19934;-71
2023/09/24 09:08:03;;;;;;;;;;;15.00;92.80;;;;;;5085396;28;20003;-71
2023/09/24 09:10:33;;;;;;;;;;;15.00;92.70;;;;;;5070917;28;19912;-70
2023/09/24 09:13:08;;;;;;;;;;;15.00;92.70;;;;;;5087817;28;19912;-70
2023/09/24 09:15:35;;;;;;;;;;;15.00;92.70;;;;;;5098218;28;19916;-70
2023/09/24 09:18:01;;;;;;;;;;;15.10;92.60;;;;;;5084235;28;19919;-70
2023/09/24 09:20:39;;;;;;;;;;;15.10;92.60;;;;;;5088243;28;19923;-71
2023/09/24 09:23:10;;;;;;;;;;;15.10;92.70;;;;;;5082285;28;19908;-71
2023/09/24 09:25:44;;;;;;;;;;;15.10;92.50;;;;;;5082732;28;19942;-71
2023/09/24 09:28:18;;;;;;;;;;;15.20;92.50;;;;;;5080885;28;20093;-71
2023/09/24 09:30:56;;;;;;;;;;;15.20;92.60;;;;;;5081228;28;20368;-71
2023/09/24 09:33:26;;;;;;;;;;;15.20;92.50;;;;;;5082786;28;19916;-71
2023/09/24 09:35:51;;;;;;;;;;;15.20;92.50;;;;;;5074389;28;19913;-71
2023/09/24 09:38:17;;;;;;;;;;;15.30;92.50;;;;;;5074617;28;19924;-71
2023/09/24 09:40:43;;;;;;;;;;;15.30;92.50;;;;;;5080392;28;19923;-71
2023/09/24 09:43:10;;;;;;;;;;;15.30;92.50;;;;;;5083521;28;20030;-71
2023/09/24 09:45:35;;;;;;;;;;;15.30;92.40;;;;;;5078452;28;20003;-71
2023/09/24 09:48:04;;;;;;;;;;;15.30;92.40;;;;;;5077949;28;20003;-71
2023/09/24 09:50:34;;;;;;;;;;;15.30;92.40;;;;;;5078460;28;19944;-71
2023/09/24 09:53:03;;;;;;;;;;;15.40;92.40;;;;;;5091632;28;20456;-71
2023/09/24 09:55:29;;;;;;;;;;;15.40;92.40;;;;;;5089770;28;19955;-71
2023/09/24 09:57:55;;;;;;;;;;;15.40;92.30;;;;;;5082113;28;19935;-71
2023/09/24 10:00:20;;;;;;;;;;;15.50;92.30;;;;;;5081810;28;19912;-71
2023/09/24 10:02:48;;;;;;;;;;;15.50;92.20;;;;;;5089531;28;19912;-71
2023/09/24 10:05:14;;;;;;;;;;;15.60;92.20;;;;;;5081254;28;19977;-71
2023/09/24 10:07:40;;;;;;;;;;;15.60;92.20;;;;;;5080875;28;19923;-71
2023/09/24 10:10:24;;;;;;;;;;;15.60;92.10;;;;;;5086738;28;20296;-71
2023/09/24 10:12:50;;;;;;;;;;;15.70;92.10;;;;;;5068525;28;19916;-71
2023/09/24 10:15:28;;;;;;;;;;;15.70;92.00;;;;;;5083857;28;19912;-71
2023/09/24 10:18:14;;;;;;;;;;;15.70;91.90;;;;;;5080121;28;19916;-71
2023/09/24 10:20:49;;;;;;;;;;;15.80;91.90;;;;;;5075754;28;20277;-71
2023/09/24 10:23:30;;;;;;;;;;;15.80;91.80;;;;;;5075186;28;19919;-71
2023/09/24 10:26:00;;;;;;;;;;;15.80;91.70;;;;;;5105992;28;20297;-71
2023/09/24 10:28:44;;;;;;;;;;;15.90;91.70;;;;;;5091848;28;20004;-71
2023/09/24 10:31:12;;;;;;;;;;;15.90;91.70;;;;;;5082824;28;19919;-71
2023/09/24 10:33:52;;;;;;;;;;;15.90;91.70;;;;;;5080554;28;19938;-71
2023/09/24 10:36:21;;;;;;;;;;;15.90;91.60;;;;;;5084376;28;20332;-71
2023/09/24 10:39:13;;;;;;;;;;;16.00;91.60;;;;;;5091886;28;19919;-71
2023/09/24 10:41:58;;;;;;;;;;;16.00;91.60;;;;;;5085163;27;19919;-70
2023/09/24 10:44:24;;;;;;;;;;;16.10;91.60;;;;;;5078793;28;20002;-70
2023/09/24 10:46:49;;;;;;;;;;;16.10;91.60;;;;;;5093461;28;20332;-70
2023/09/24 10:49:19;;;;;;;;;;;16.20;91.50;;;;;;5075295;28;19916;-70
2023/09/24 10:51:45;;;;;;;;;;;16.20;91.60;;;;;;5089260;28;20373;-70
2023/09/24 10:54:17;;;;;;;;;;;16.30;91.50;;;;;;5089231;28;19912;-70
2023/09/24 10:56:48;;;;;;;;;;;16.30;91.50;;;;;;5093251;28;19955;-70
2023/09/24 10:59:14;;;;;;;;;;;16.30;91.50;;;;;;5083605;28;19925;-70
2023/09/24 11:01:40;;;;;;;;;;;16.40;91.20;;;;;;5086746;28;20007;-70
2023/09/24 11:04:09;;;;;;;;;;;16.40;91.40;;;;;;5074454;28;19908;-70
2023/09/24 11:06:35;;;;;;;;;;;16.50;91.60;;;;;;5087337;28;20009;-70
2023/09/24 11:09:16;;;;;;;;;;;16.60;91.70;;;;;;5092049;28;19935;-70
2023/09/24 11:11:42;;;;;;;;;;;16.60;91.40;;;;;;5085116;28;19919;-70
2023/09/24 11:14:25;;;;;;;;;;;16.80;91.30;;;;;;5106504;28;19912;-70
2023/09/24 11:16:51;;;;;;;;;;;16.80;91.40;;;;;;5115437;27;19912;-70
2023/09/24 11:19:48;;;;;;;;;;;16.90;91.20;;;;;;5092238;28;19916;-70
2023/09/24 11:22:24;;;;;;;;;;;17.00;91.30;;;;;;5040810;28;19912;-70
2023/09/24 11:25:06;;;;;;;;;;;17.10;91.20;;;;;;5088957;28;19918;-70
2023/09/24 11:27:35;;;;;;;;;;;17.10;91.30;;;;;;5075389;28;20618;-70
2023/09/24 11:30:02;;;;;;;;;;;17.20;91.20;;;;;;5083671;28;19912;-70
2023/09/24 11:32:27;;;;;;;;;;;17.30;91.40;;;;;;5075850;28;19912;-70
2023/09/24 11:35:06;;;;;;;;;;;17.40;91.30;;;;;;5088290;28;20415;-69
2023/09/24 11:37:44;;;;;;;;;;;17.50;91.20;;;;;;5084855;28;19929;-70
2023/09/24 11:40:30;;;;;;;;;;;17.50;91.40;;;;;;5092956;28;19920;-70
2023/09/24 11:42:55;;;;;;;;;;;17.60;91.50;;;;;;5077818;28;20270;-70
2023/09/24 11:45:40;;;;;;;;;;;17.70;91.60;;;;;;5079863;28;19912;-70
2023/09/24 11:48:06;;;;;;;;;;;17.80;91.70;;;;;;5087221;28;19912;-70
2023/09/24 11:50:35;;;;;;;;;;;17.80;91.50;;;;;;5088034;28;19973;-70
2023/09/24 11:53:01;;;;;;;;;;;17.90;91.60;;;;;;5085251;28;19919;-70
2023/09/24 11:55:27;;;;;;;;;;;18.00;91.60;;;;;;5092742;28;20448;-70
2023/09/24 11:57:53;;;;;;;;;;;18.10;91.70;;;;;;5099626;28;20469;-70
2023/09/24 12:00:18;;;;;;;;;;;18.10;91.70;;;;;;5085267;28;19951;-70
2023/09/24 12:02:44;;;;;;;;;;;18.20;91.80;;;;;;5084951;28;20368;-70
2023/09/24 12:05:09;;;;;;;;;;;18.30;91.80;;;;;;5092350;28;20345;-70
2023/09/24 12:07:38;;;;;;;;;;;18.30;92.00;;;;;;5084667;28;19920;-70
2023/09/24 12:10:04;;;;;;;;;;;18.40;91.80;;;;;;5083904;28;19908;-70
2023/09/24 12:12:30;;;;;;;;;;;18.50;91.90;;;;;;5073922;28;19913;-70
2023/09/24 12:14:55;;;;;;;;;;;18.50;91.60;;;;;;5079601;28;19912;-70
2023/09/24 12:17:20;;;;;;;;;;;18.60;92.00;;;;;;5080131;28;19916;-70
2023/09/24 12:19:47;;;;;;;;;;;18.70;92.10;;;;;;5082210;28;20304;-70
2023/09/24 12:22:13;;;;;;;;;;;18.70;92.00;;;;;;5098037;28;19908;-70
2023/09/24 12:24:39;;;;;;;;;;;18.80;92.10;;;;;;5093342;28;20300;-70
2023/09/24 12:27:04;;;;;;;;;;;18.80;92.00;;;;;;5092305;28;20437;-70
2023/09/24 12:29:30;;;;;;;;;;;18.90;92.10;;;;;;5080364;28;19934;-70
2023/09/24 12:31:56;;;;;;;;;;;18.90;92.10;;;;;;5092371;28;19912;-70
2023/09/24 12:34:22;;;;;;;;;;;19.00;92.10;;;;;;5083174;28;20008;-70
2023/09/24 12:36:47;;;;;;;;;;;19.00;92.00;;;;;;5088749;28;19919;-70
2023/09/24 12:39:13;;;;;;;;;;;19.10;92.00;;;;;;5090496;28;19920;-70
2023/09/24 12:41:39;;;;;;;;;;;19.10;92.10;;;;;;5089829;28;19908;-70
2023/09/24 12:44:04;;;;;;;;;;;19.10;92.10;;;;;;5084582;28;19912;-70
2023/09/24 12:46:30;;;;;;;;;;;19.20;92.00;;;;;;5080536;28;19918;-70
2023/09/24 12:48:55;;;;;;;;;;;19.20;92.10;;;;;;5082923;28;19916;-70
2023/09/24 12:51:21;;;;;;;;;;;19.30;92.10;;;;;;5090181;28;19911;-70
2023/09/24 12:53:48;;;;;;;;;;;19.30;92.20;;;;;;5087676;28;19918;-71
2023/09/24 12:56:13;;;;;;;;;;;19.30;92.20;;;;;;5104978;28;20003;-71
2023/09/24 12:58:39;;;;;;;;;;;19.40;92.20;;;;;;5079966;28;20011;-71
2023/09/24 13:01:04;;;;;;;;;;;19.40;92.30;;;;;;5085006;28;19918;-71
2023/09/24 13:03:30;;;;;;;;;;;19.50;92.30;;;;;;5099125;28;19908;-71
2023/09/24 13:05:55;;;;;;;;;;;19.50;92.20;;;;;;5082848;28;19916;-71
2023/09/24 13:08:21;;;;;;;;;;;19.50;92.40;;;;;;5091267;28;19916;-70
2023/09/24 13:10:46;;;;;;;;;;;19.60;92.30;;;;;;5090788;28;19915;-70
2023/09/24 13:13:11;;;;;;;;;;;19.60;92.60;;;;;;5082903;28;20394;-70
2023/09/24 13:15:37;;;;;;;;;;;19.70;92.30;;;;;;5097540;28;19907;-70
2023/09/24 13:18:03;;;;;;;;;;;19.70;92.30;;;;;;5081401;28;19962;-70
2023/09/24 13:20:28;;;;;;;;;;;19.70;92.40;;;;;;5079012;28;20361;-70
2023/09/24 13:22:54;;;;;;;;;;;19.80;92.40;;;;;;5083607;28;20360;-70
2023/09/24 13:25:19;;;;;;;;;;;19.80;92.30;;;;;;5090607;28;19916;-70
2023/09/24 13:27:45;;;;;;;;;;;19.80;92.00;;;;;;5073935;28;19981;-70
2023/09/24 13:30:10;;;;;;;;;;;19.90;92.20;;;;;;5091956;28;19912;-71
2023/09/24 13:32:36;;;;;;;;;;;19.90;92.50;;;;;;5090595;28;20670;-71
2023/09/24 13:35:03;;;;;;;;;;;19.90;92.50;;;;;;5103768;28;19926;-71
2023/09/24 13:37:29;;;;;;;;;;;19.90;92.50;;;;;;5093945;28;20026;-71
2023/09/24 13:39:55;;;;;;;;;;;19.90;92.50;;;;;;5081052;28;19962;-71
2023/09/24 13:42:20;;;;;;;;;;;20.00;92.40;;;;;;5083690;28;19956;-71
2023/09/24 13:44:46;;;;;;;;;;;20.10;92.30;;;;;;5089008;27;20003;-71
2023/09/24 13:47:15;;;;;;;;;;;20.00;92.30;;;;;;5072402;28;19916;-71
2023/09/24 13:49:40;;;;;;;;;;;20.10;92.50;;;;;;5085467;28;19919;-71
2023/09/24 13:52:06;;;;;;;;;;;20.10;92.40;;;;;;5083907;28;19916;-71
2023/09/24 13:54:32;;;;;;;;;;;20.10;92.40;;;;;;5090958;28;20376;-71
2023/09/24 13:56:58;;;;;;;;;;;20.10;92.40;;;;;;5083974;28;20030;-71
2023/09/24 13:59:23;;;;;;;;;;;20.20;92.40;;;;;;5074516;28;19923;-71
2023/09/24 14:01:49;;;;;;;;;;;20.20;92.40;;;;;;5080803;28;20965;-71
2023/09/24 14:04:14;;;;;;;;;;;20.20;92.30;;;;;;5081544;28;19912;-71
2023/09/24 14:06:42;;;;;;;;;;;20.20;92.40;;;;;;5074950;28;19968;-71
2023/09/24 14:14:36;;;;;;;;;;;20.20;92.20;;;;;;5073004;28;19916;-71
2023/09/24 14:17:01;;;;;;;;;;;20.30;92.50;;;;;;5090993;28;19916;-71
2023/09/24 14:19:27;;;;;;;;;;;20.30;92.40;;;;;;5103168;27;19926;-71
2023/09/24 14:21:52;;;;;;;;;;;20.30;92.30;;;;;;5090296;28;20392;-71